Time;durP1;ratioP1;P1;durP2;ratioP2;P2;SDS_P1;SDS_P2;PMS_P1;PMS_P2;Temp;Humidity;BMP_temperature;BMP_pressure;BME280_temperature;BME280_humidity;BME280_pressure;Samples;Min_cycle;Max_cycle;Signal;HPM_P1;HPM_P2
2020/12/18 00:00:35;;;;;;;6.65;3.33;;;8.00;99.90;;;;;;4170653;28;20029;-80
2020/12/18 00:02:36;;;;;;;5.70;2.97;;;8.00;99.90;;;;;;4151974;28;22767;-80
2020/12/18 00:04:37;;;;;;;6.00;3.20;;;8.00;99.90;;;;;;4165143;28;20037;-80
2020/12/18 00:06:37;;;;;;;4.95;3.10;;;8.00;99.90;;;;;;4126239;28;20076;-80
2020/12/18 00:08:39;;;;;;;11.35;3.78;;;8.00;99.90;;;;;;4160407;28;20041;-80
2020/12/18 00:10:39;;;;;;;7.85;3.50;;;8.00;99.90;;;;;;4179816;28;20116;-80
2020/12/18 00:12:45;;;;;;;6.40;3.67;;;8.00;99.90;;;;;;4165197;28;20040;-80
2020/12/18 00:14:46;;;;;;;10.57;4.22;;;7.90;99.90;;;;;;4162802;28;20057;-80
2020/12/18 00:16:46;;;;;;;7.65;3.45;;;7.90;99.90;;;;;;4172406;28;20033;-80
2020/12/18 00:18:47;;;;;;;5.38;3.08;;;7.90;99.90;;;;;;4163693;28;20029;-80
2020/12/18 00:20:50;;;;;;;5.50;3.05;;;7.80;99.90;;;;;;4162170;28;20034;-80
2020/12/18 00:22:50;;;;;;;6.82;3.50;;;7.90;99.90;;;;;;4146669;28;20663;-81
2020/12/18 00:24:53;;;;;;;7.18;3.22;;;7.90;99.90;;;;;;4148421;28;20037;-81
2020/12/18 00:26:54;;;;;;;7.10;3.50;;;7.90;99.90;;;;;;4153080;28;20026;-81
2020/12/18 00:28:54;;;;;;;9.65;3.60;;;7.90;99.90;;;;;;4167462;28;20032;-81
2020/12/18 00:30:55;;;;;;;6.20;3.28;;;7.90;99.90;;;;;;4164121;28;20469;-81
2020/12/18 00:32:55;;;;;;;5.05;3.05;;;7.90;99.90;;;;;;4169699;28;20030;-81
2020/12/18 00:34:56;;;;;;;7.03;3.05;;;7.90;99.90;;;;;;4163686;28;20386;-81
2020/12/18 00:36:57;;;;;;;10.48;3.70;;;7.90;99.90;;;;;;4169172;28;20053;-81
2020/12/18 00:38:57;;;;;;;9.10;3.10;;;7.90;99.90;;;;;;4146920;28;20101;-80
2020/12/18 00:40:58;;;;;;;9.85;3.60;;;7.90;99.90;;;;;;4169149;28;20112;-80
2020/12/18 00:42:58;;;;;;;7.25;3.58;;;7.90;99.90;;;;;;4166427;28;20048;-80
2020/12/18 00:44:59;;;;;;;11.70;3.85;;;7.80;99.90;;;;;;4157672;28;20358;-80
2020/12/18 00:47:00;;;;;;;7.60;3.28;;;7.80;99.90;;;;;;4164651;28;20032;-80
2020/12/18 00:49:01;;;;;;;9.93;3.70;;;7.80;99.90;;;;;;4149618;28;20077;-80
2020/12/18 00:51:01;;;;;;;7.50;3.80;;;7.70;99.90;;;;;;4155217;28;20561;-81
2020/12/18 00:53:04;;;;;;;6.25;3.80;;;7.80;99.90;;;;;;4160561;28;20069;-81
2020/12/18 00:55:04;;;;;;;8.25;3.67;;;7.70;99.90;;;;;;4164754;28;20543;-81
2020/12/18 00:57:05;;;;;;;8.80;3.22;;;7.70;99.90;;;;;;4164396;28;20034;-81
2020/12/18 00:59:05;;;;;;;6.57;3.70;;;7.70;99.90;;;;;;4166481;28;20029;-81
2020/12/18 01:01:06;;;;;;;7.18;3.95;;;7.70;99.90;;;;;;4153220;28;20041;-81
2020/12/18 01:03:07;;;;;;;7.68;3.92;;;7.70;99.90;;;;;;4170227;28;20029;-81
2020/12/18 01:05:08;;;;;;;6.13;3.45;;;7.70;99.90;;;;;;4173021;28;20099;-81
2020/12/18 01:07:08;;;;;;;6.22;3.70;;;7.70;99.90;;;;;;4148159;28;20034;-81
2020/12/18 01:09:10;;;;;;;7.05;3.50;;;7.70;99.90;;;;;;4146887;28;20096;-81
2020/12/18 01:11:11;;;;;;;5.47;2.88;;;7.60;99.90;;;;;;4169159;28;20033;-81
2020/12/18 01:13:12;;;;;;;7.03;3.10;;;7.60;99.90;;;;;;4155901;28;20030;-81
2020/12/18 01:15:12;;;;;;;7.90;3.53;;;7.60;99.90;;;;;;4146921;28;20406;-81
2020/12/18 01:17:13;;;;;;;8.95;3.50;;;7.60;99.90;;;;;;4148082;28;20056;-81
2020/12/18 01:19:14;;;;;;;7.97;3.53;;;7.60;99.90;;;;;;4149538;28;20571;-81
2020/12/18 01:21:14;;;;;;;5.82;2.90;;;7.60;99.90;;;;;;4166636;28;20044;-81
2020/12/18 01:23:16;;;;;;;6.80;3.40;;;7.60;99.90;;;;;;4160823;28;20112;-81
2020/12/18 01:25:16;;;;;;;8.10;3.13;;;7.60;99.90;;;;;;4149866;28;20030;-81
2020/12/18 01:27:17;;;;;;;8.20;3.80;;;7.60;99.90;;;;;;4165795;28;20029;-81
2020/12/18 01:29:18;;;;;;;6.60;3.67;;;7.50;99.90;;;;;;4162799;28;20052;-81
2020/12/18 01:31:29;;;;;;;6.40;3.17;;;7.50;99.90;;;;;;4157570;28;20061;-81
2020/12/18 01:33:30;;;;;;;8.68;3.42;;;7.50;99.90;;;;;;4164183;28;20037;-81
2020/12/18 01:35:30;;;;;;;8.02;3.33;;;7.40;99.90;;;;;;4169480;28;20041;-81
2020/12/18 01:37:44;;;;;;;7.38;3.30;;;7.40;99.90;;;;;;4153076;28;20030;-81
2020/12/18 01:39:45;;;;;;;7.22;3.47;;;7.40;99.90;;;;;;4164445;28;20472;-80
2020/12/18 01:41:45;;;;;;;7.30;3.25;;;7.40;99.90;;;;;;4165118;28;20043;-80
2020/12/18 01:43:46;;;;;;;12.50;3.85;;;7.40;99.90;;;;;;4150260;28;20041;-80
2020/12/18 01:45:46;;;;;;;9.00;3.70;;;7.40;99.90;;;;;;4146618;28;20057;-80
2020/12/18 01:47:47;;;;;;;8.98;2.95;;;7.30;99.90;;;;;;4151164;28;20332;-80
2020/12/18 01:49:48;;;;;;;7.63;3.33;;;7.30;99.90;;;;;;4168398;28;20033;-80
2020/12/18 01:51:50;;;;;;;7.07;3.17;;;7.30;99.90;;;;;;4152924;28;20021;-80
2020/12/18 01:53:51;;;;;;;5.60;3.00;;;7.30;99.90;;;;;;4158761;28;20029;-80
2020/12/18 01:55:53;;;;;;;7.78;3.30;;;7.30;99.90;;;;;;4146677;28;20544;-80
2020/12/18 01:57:54;;;;;;;4.90;2.97;;;7.30;99.90;;;;;;4163091;28;20831;-80
2020/12/18 01:59:55;;;;;;;8.63;3.63;;;7.30;99.90;;;;;;4150947;28;20037;-80
2020/12/18 02:01:56;;;;;;;8.65;3.60;;;7.20;99.90;;;;;;4165401;28;20033;-80
2020/12/18 02:03:58;;;;;;;8.02;3.30;;;7.20;99.90;;;;;;4149610;28;20030;-80
2020/12/18 02:06:02;;;;;;;7.15;3.30;;;7.20;99.90;;;;;;4167335;28;20029;-81
2020/12/18 02:08:04;;;;;;;6.85;3.42;;;7.20;99.90;;;;;;4148382;28;20038;-81
2020/12/18 02:10:05;;;;;;;8.48;3.55;;;7.20;99.90;;;;;;4147338;28;20034;-81
2020/12/18 02:12:06;;;;;;;5.22;2.90;;;7.20;99.90;;;;;;4166531;28;20083;-81
2020/12/18 02:14:14;;;;;;;5.95;3.30;;;7.20;99.90;;;;;;4164902;28;20120;-81
2020/12/18 02:16:15;;;;;;;7.28;3.50;;;7.30;99.90;;;;;;4169454;28;20545;-80
2020/12/18 02:18:18;;;;;;;8.30;3.37;;;7.20;99.90;;;;;;4162272;28;20574;-80
2020/12/18 02:20:19;;;;;;;5.53;2.78;;;7.20;99.90;;;;;;4155354;28;20276;-83
2020/12/18 02:22:25;;;;;;;5.00;2.85;;;7.20;99.90;;;;;;4168702;28;20036;-81
2020/12/18 02:24:27;;;;;;;7.75;3.40;;;7.20;99.90;;;;;;4146618;28;20128;-81
2020/12/18 02:26:28;;;;;;;7.70;3.38;;;7.20;99.90;;;;;;4166455;28;20156;-81
2020/12/18 02:28:29;;;;;;;7.63;3.20;;;7.20;99.90;;;;;;4169151;28;20040;-81
2020/12/18 02:30:30;;;;;;;8.33;3.30;;;7.20;99.90;;;;;;4161786;28;20037;-81
2020/12/18 02:32:31;;;;;;;5.82;2.97;;;7.20;99.90;;;;;;4163305;28;20026;-81
2020/12/18 02:34:34;;;;;;;5.38;2.60;;;7.20;99.90;;;;;;4165745;28;20025;-81
2020/12/18 02:36:34;;;;;;;7.40;3.03;;;7.20;99.90;;;;;;4163053;28;20067;-81
2020/12/18 02:38:36;;;;;;;8.38;2.90;;;7.30;99.90;;;;;;4169948;28;20653;-81
2020/12/18 02:40:37;;;;;;;6.95;3.13;;;7.30;99.90;;;;;;4163785;28;20485;-81
2020/12/18 02:42:37;;;;;;;6.45;2.90;;;7.30;99.90;;;;;;4171313;28;20048;-81
2020/12/18 02:44:38;;;;;;;5.05;2.80;;;7.30;99.90;;;;;;4168331;28;20112;-81
2020/12/18 02:46:39;;;;;;;6.90;2.92;;;7.30;99.90;;;;;;4161177;28;20030;-81
2020/12/18 02:48:40;;;;;;;5.80;2.85;;;7.30;99.90;;;;;;4162760;28;20029;-81
2020/12/18 02:50:40;;;;;;;5.75;2.58;;;7.30;99.90;;;;;;4143871;28;20037;-81
2020/12/18 02:52:42;;;;;;;5.47;2.97;;;7.30;99.90;;;;;;4142072;28;20030;-81
2020/12/18 02:54:43;;;;;;;6.95;3.33;;;7.30;99.90;;;;;;4159782;28;20489;-81
2020/12/18 02:56:44;;;;;;;6.00;3.20;;;7.30;99.90;;;;;;4146328;28;20036;-82
2020/12/18 02:58:44;;;;;;;6.32;2.80;;;7.30;99.90;;;;;;4157902;28;20030;-81
2020/12/18 03:00:45;;;;;;;5.50;2.60;;;7.30;99.90;;;;;;4160686;28;20051;-81
2020/12/18 03:02:45;;;;;;;6.18;2.45;;;7.20;99.90;;;;;;4160529;28;20033;-81
2020/12/18 03:04:46;;;;;;;6.15;2.60;;;7.20;99.90;;;;;;4160109;28;20033;-81
2020/12/18 03:06:47;;;;;;;5.38;2.70;;;7.20;99.90;;;;;;4160920;28;20025;-81
2020/12/18 03:08:47;;;;;;;7.60;3.05;;;7.20;99.90;;;;;;4153961;28;20029;-81
2020/12/18 03:10:48;;;;;;;7.72;2.95;;;7.20;99.90;;;;;;4145929;28;20033;-81
2020/12/18 03:12:48;;;;;;;5.82;2.92;;;7.20;99.90;;;;;;4158010;28;20116;-81
2020/12/18 03:14:49;;;;;;;8.50;3.20;;;7.20;99.90;;;;;;4160497;28;20420;-81
2020/12/18 03:16:50;;;;;;;12.50;3.90;;;7.10;99.90;;;;;;4169887;28;20030;-81
2020/12/18 03:18:50;;;;;;;8.18;3.42;;;7.10;99.90;;;;;;4143987;28;20136;-81
2020/12/18 03:20:51;;;;;;;7.97;3.35;;;7.10;99.90;;;;;;4184799;28;20116;-81
2020/12/18 03:22:51;;;;;;;5.60;2.95;;;7.10;99.90;;;;;;4157688;28;20037;-82
2020/12/18 03:24:52;;;;;;;3.55;2.30;;;7.10;99.90;;;;;;4160421;28;20112;-82
2020/12/18 03:26:53;;;;;;;7.80;3.00;;;7.00;99.90;;;;;;4160446;28;20060;-82
2020/12/18 03:28:53;;;;;;;4.38;2.92;;;7.00;99.90;;;;;;4164620;28;20444;-82
2020/12/18 03:30:54;;;;;;;6.70;2.90;;;7.00;99.90;;;;;;4161368;28;20037;-81
2020/12/18 03:32:55;;;;;;;6.88;2.70;;;7.10;99.90;;;;;;4161173;28;20040;-81
2020/12/18 03:34:56;;;;;;;7.82;3.15;;;7.10;99.90;;;;;;4145675;28;20029;-81
2020/12/18 03:36:57;;;;;;;6.80;2.75;;;7.10;99.90;;;;;;4144851;28;20513;-81
2020/12/18 03:38:58;;;;;;;7.15;2.83;;;7.00;99.90;;;;;;4158831;28;20029;-81
2020/12/18 03:40:58;;;;;;;7.15;2.65;;;7.00;99.90;;;;;;4143669;28;20133;-81
2020/12/18 03:42:59;;;;;;;6.60;3.00;;;7.00;99.90;;;;;;4161667;28;20026;-81
2020/12/18 03:44:59;;;;;;;6.93;3.00;;;7.00;99.90;;;;;;4162858;28;20064;-81
2020/12/18 03:47:00;;;;;;;5.93;2.70;;;7.00;99.90;;;;;;4161291;28;20050;-81
2020/12/18 03:49:01;;;;;;;6.15;2.92;;;7.00;99.90;;;;;;4163709;28;20029;-81
2020/12/18 03:51:01;;;;;;;6.55;2.65;;;7.00;99.90;;;;;;4158916;28;20033;-81
2020/12/18 03:53:02;;;;;;;7.00;3.05;;;7.00;99.90;;;;;;4165587;28;20026;-81
2020/12/18 03:55:03;;;;;;;5.10;2.88;;;7.00;99.90;;;;;;4160368;28;20029;-81
2020/12/18 03:57:04;;;;;;;6.03;2.90;;;7.00;99.90;;;;;;4168178;28;20021;-81
2020/12/18 03:59:05;;;;;;;6.82;3.17;;;6.90;99.90;;;;;;4158664;28;20042;-81
2020/12/18 04:01:05;;;;;;;5.95;3.33;;;6.90;99.90;;;;;;4142955;28;20092;-81
2020/12/18 04:03:07;;;;;;;8.45;3.13;;;6.90;99.90;;;;;;4163896;28;20029;-81
2020/12/18 04:05:07;;;;;;;5.05;2.70;;;6.90;99.90;;;;;;4172746;28;20032;-81
2020/12/18 04:07:12;;;;;;;7.22;3.20;;;6.90;99.90;;;;;;4171601;28;20029;-81
2020/12/18 04:09:12;;;;;;;8.07;2.90;;;6.90;99.90;;;;;;4147254;28;20391;-81
2020/12/18 04:11:13;;;;;;;5.40;2.97;;;6.90;99.90;;;;;;4162891;28;20028;-81
2020/12/18 04:13:14;;;;;;;8.20;3.42;;;6.90;99.90;;;;;;4166451;28;20026;-81
2020/12/18 04:15:14;;;;;;;7.00;2.95;;;6.80;99.90;;;;;;4151662;28;20033;-82
2020/12/18 04:17:15;;;;;;;7.53;3.42;;;6.90;99.90;;;;;;4165263;28;20029;-81
2020/12/18 04:19:16;;;;;;;6.22;3.20;;;6.90;99.90;;;;;;4165135;28;20049;-82
2020/12/18 04:21:17;;;;;;;9.75;3.55;;;6.90;99.90;;;;;;4162932;28;20044;-82
2020/12/18 04:23:17;;;;;;;6.75;3.42;;;6.90;99.90;;;;;;4163868;28;20037;-83
2020/12/18 04:25:18;;;;;;;8.00;3.03;;;6.90;99.90;;;;;;4148743;28;20398;-82
2020/12/18 04:27:19;;;;;;;6.85;3.13;;;6.90;99.90;;;;;;4148388;28;20118;-82
2020/12/18 04:29:20;;;;;;;5.75;3.03;;;6.90;99.90;;;;;;4161064;28;20030;-82
2020/12/18 04:31:21;;;;;;;7.40;3.17;;;6.90;99.90;;;;;;4162696;28;20087;-82
2020/12/18 04:33:21;;;;;;;5.88;2.90;;;6.90;99.90;;;;;;4170648;28;20037;-82
2020/12/18 04:35:22;;;;;;;7.60;3.05;;;7.00;99.90;;;;;;4164847;28;20034;-82
2020/12/18 04:37:28;;;;;;;7.25;3.53;;;6.90;99.90;;;;;;4165136;28;20186;-82
2020/12/18 04:39:29;;;;;;;10.23;4.18;;;6.90;99.90;;;;;;4165984;28;20552;-82
2020/12/18 04:41:30;;;;;;;7.28;3.30;;;6.90;99.90;;;;;;4164221;28;20038;-82
2020/12/18 04:43:31;;;;;;;8.32;4.10;;;7.00;99.90;;;;;;4167468;28;20033;-82
2020/12/18 04:45:31;;;;;;;9.10;3.50;;;6.90;99.90;;;;;;4171121;28;20053;-82
2020/12/18 04:47:39;;;;;;;5.70;3.33;;;6.90;99.90;;;;;;4162789;28;20030;-82
2020/12/18 04:49:42;;;;;;;7.28;4.07;;;6.90;99.90;;;;;;4162624;28;20049;-81
2020/12/18 04:51:43;;;;;;;7.38;3.55;;;6.90;99.90;;;;;;4162539;28;20035;-81
2020/12/18 04:53:48;;;;;;;9.38;3.67;;;6.90;99.90;;;;;;4162449;28;20040;-81
2020/12/18 04:55:52;;;;;;;8.70;3.60;;;6.90;99.90;;;;;;4165424;28;20491;-81
2020/12/18 04:57:53;;;;;;;10.50;3.85;;;6.90;99.90;;;;;;4145464;28;20596;-82
2020/12/18 04:59:54;;;;;;;7.57;3.97;;;6.90;99.90;;;;;;4165429;28;20038;-82
2020/12/18 05:01:55;;;;;;;10.70;4.05;;;6.90;99.90;;;;;;4163589;28;20117;-82
2020/12/18 05:03:58;;;;;;;17.35;4.63;;;6.80;99.90;;;;;;4165752;28;20107;-82
2020/12/18 05:06:06;;;;;;;10.57;3.60;;;6.80;99.90;;;;;;4148680;28;20038;-82
2020/12/18 05:08:07;;;;;;;10.65;4.10;;;6.80;99.90;;;;;;4163940;28;20487;-82
2020/12/18 05:10:08;;;;;;;7.85;3.88;;;6.80;99.90;;;;;;4162814;28;20077;-82
2020/12/18 05:12:09;;;;;;;11.25;3.67;;;6.80;99.90;;;;;;4162179;28;20033;-82
2020/12/18 05:14:10;;;;;;;9.98;4.25;;;6.70;99.90;;;;;;4173067;28;20057;-82
2020/12/18 05:16:11;;;;;;;6.40;3.53;;;6.80;99.90;;;;;;4164816;28;20025;-82
2020/12/18 05:18:12;;;;;;;7.78;4.10;;;6.80;99.90;;;;;;4145282;28;20081;-81
2020/12/18 05:20:13;;;;;;;11.25;4.03;;;6.80;99.90;;;;;;4165455;28;20141;-81
2020/12/18 05:22:14;;;;;;;8.27;4.03;;;6.70;99.90;;;;;;4144289;28;20030;-81
2020/12/18 05:24:14;;;;;;;6.85;4.32;;;6.80;99.90;;;;;;4165223;28;20033;-81
2020/12/18 05:26:15;;;;;;;9.52;4.20;;;6.70;99.90;;;;;;4165080;28;20040;-81
2020/12/18 05:28:19;;;;;;;8.10;4.25;;;6.70;99.90;;;;;;4147336;28;20038;-81
2020/12/18 05:30:21;;;;;;;12.85;4.43;;;6.80;99.90;;;;;;4144404;28;20486;-81
2020/12/18 05:32:23;;;;;;;10.98;4.55;;;6.80;99.90;;;;;;4163315;28;20029;-81
2020/12/18 05:34:24;;;;;;;8.60;4.03;;;6.80;99.90;;;;;;4149078;28;20041;-81
2020/12/18 05:36:26;;;;;;;7.18;4.03;;;6.80;99.90;;;;;;4160414;28;20095;-81
2020/12/18 05:38:26;;;;;;;7.50;4.23;;;6.90;99.90;;;;;;4163138;28;20030;-82
2020/12/18 05:40:29;;;;;;;9.93;4.90;;;6.80;99.90;;;;;;4165601;28;20370;-82
2020/12/18 05:42:43;;;;;;;9.05;4.40;;;6.90;99.90;;;;;;4148608;28;20121;-82
2020/12/18 05:44:43;;;;;;;8.55;4.45;;;6.90;99.90;;;;;;4161280;28;20030;-81
2020/12/18 05:46:44;;;;;;;10.85;4.88;;;6.90;99.90;;;;;;4164794;28;20034;-81
2020/12/18 05:48:51;;;;;;;7.95;4.30;;;6.90;99.90;;;;;;4164760;28;20480;-82
2020/12/18 05:50:52;;;;;;;10.38;4.80;;;6.90;99.90;;;;;;4144996;28;20485;-82
2020/12/18 05:52:58;;;;;;;11.70;5.40;;;6.80;99.90;;;;;;4169548;28;20053;-82
2020/12/18 05:54:59;;;;;;;9.63;4.20;;;6.80;99.90;;;;;;4166932;28;20443;-82
2020/12/18 05:57:11;;;;;;;9.35;4.38;;;6.80;99.90;;;;;;4162795;28;20029;-82
2020/12/18 05:59:16;;;;;;;7.97;4.18;;;6.80;99.90;;;;;;4163988;28;20167;-81
2020/12/18 06:01:17;;;;;;;11.40;4.43;;;6.90;99.90;;;;;;4163305;28;20036;-81
2020/12/18 06:03:20;;;;;;;9.30;4.80;;;6.80;99.90;;;;;;4160417;28;20038;-81
2020/12/18 06:05:23;;;;;;;7.80;4.60;;;6.80;99.90;;;;;;4157762;28;20056;-81
2020/12/18 06:07:24;;;;;;;8.73;4.30;;;6.80;99.90;;;;;;4158359;28;20033;-81
2020/12/18 06:09:28;;;;;;;8.35;4.78;;;6.90;99.90;;;;;;4163990;28;20091;-83
2020/12/18 06:11:31;;;;;;;10.57;5.20;;;6.90;99.90;;;;;;4148206;28;20037;-83
2020/12/18 06:13:37;;;;;;;10.82;5.15;;;6.80;99.90;;;;;;4164124;28;20041;-83
2020/12/18 06:15:38;;;;;;;8.40;4.90;;;6.80;99.90;;;;;;4162418;28;20095;-83
2020/12/18 06:17:44;;;;;;;12.40;5.75;;;6.90;99.90;;;;;;4166805;28;20522;-83
2020/12/18 06:19:45;;;;;;;10.95;6.07;;;6.90;99.90;;;;;;4161275;28;20072;-82
2020/12/18 06:21:58;;;;;;;13.38;5.38;;;6.90;99.90;;;;;;4164159;28;20032;-83
2020/12/18 06:24:00;;;;;;;10.68;5.90;;;6.80;99.90;;;;;;4144126;28;20116;-83
2020/12/18 06:26:01;;;;;;;11.43;5.80;;;6.80;99.90;;;;;;4139974;28;20136;-81
2020/12/18 06:28:03;;;;;;;10.80;5.78;;;6.80;99.90;;;;;;4163428;28;20084;-81
2020/12/18 06:30:10;;;;;;;13.70;6.85;;;6.80;99.90;;;;;;4163964;28;20517;-80
2020/12/18 06:32:20;;;;;;;10.00;6.13;;;6.90;99.90;;;;;;4160941;28;20055;-80
2020/12/18 06:34:26;;;;;;;14.50;6.53;;;6.90;99.90;;;;;;4160952;28;20398;-83
2020/12/18 06:36:59;;;;;;;15.23;7.32;;;6.80;99.90;;;;;;4151178;28;20048;-84
2020/12/18 06:39:22;;;;;;;13.87;7.67;;;6.80;99.90;;;;;;4117382;28;20704;-81
2020/12/18 06:41:24;;;;;;;12.10;6.93;;;6.80;99.90;;;;;;4153121;28;20033;-80
2020/12/18 06:43:43;;;;;;;14.70;7.40;;;6.90;99.90;;;;;;4142403;28;20457;-80
2020/12/18 06:46:03;;;;;;;14.93;7.82;;;6.80;99.90;;;;;;4143926;28;20520;-82
2020/12/18 06:48:25;;;;;;;15.73;7.53;;;6.90;99.90;;;;;;4163933;28;20029;-81
2020/12/18 06:50:35;;;;;;;11.93;6.88;;;6.80;99.90;;;;;;4158795;28;20567;-83
2020/12/18 06:52:52;;;;;;;11.75;7.18;;;6.80;99.90;;;;;;4163448;28;20030;-83
2020/12/18 06:54:57;;;;;;;9.82;7.05;;;6.80;99.90;;;;;;4163454;28;20040;-82
2020/12/18 06:57:20;;;;;;;17.42;7.70;;;6.80;99.90;;;;;;4161458;28;20036;-81
2020/12/18 06:59:22;;;;;;;18.02;9.02;;;6.90;99.90;;;;;;4162528;28;20044;-81
2020/12/18 07:01:31;;;;;;;10.87;6.30;;;6.90;99.90;;;;;;4180562;28;20025;-81
2020/12/18 07:03:46;;;;;;;13.98;7.22;;;6.90;99.90;;;;;;4161905;28;20052;-81
2020/12/18 07:05:47;;;;;;;11.80;6.82;;;6.90;99.90;;;;;;4165356;28;20978;-81
2020/12/18 07:07:56;;;;;;;9.13;5.28;;;6.80;99.90;;;;;;4144805;28;20021;-81
2020/12/18 07:09:57;;;;;;;10.82;6.13;;;6.80;99.90;;;;;;4163786;28;20044;-82
2020/12/18 07:12:02;;;;;;;15.82;7.05;;;6.80;99.90;;;;;;4165237;28;20586;-81
2020/12/18 07:14:14;;;;;;;12.52;5.65;;;6.80;99.90;;;;;;4151309;28;20056;-82
2020/12/18 07:16:25;;;;;;;10.90;4.80;;;6.80;99.90;;;;;;4149733;28;20026;-82
2020/12/18 07:18:33;;;;;;;7.70;3.85;;;6.80;99.90;;;;;;4149850;28;20037;-82
2020/12/18 07:20:34;;;;;;;6.80;4.13;;;6.80;99.90;;;;;;4155860;28;20057;-82
2020/12/18 07:22:35;;;;;;;10.23;4.25;;;6.80;99.90;;;;;;4161644;28;20076;-82
2020/12/18 07:24:36;;;;;;;6.60;3.53;;;6.90;99.90;;;;;;4145514;28;20061;-82
2020/12/18 07:26:36;;;;;;;8.05;3.70;;;6.80;99.90;;;;;;4162588;28;20901;-83
2020/12/18 07:28:39;;;;;;;7.80;3.25;;;6.80;99.90;;;;;;4163924;28;20129;-82
2020/12/18 07:30:42;;;;;;;9.23;3.33;;;6.80;99.90;;;;;;4145302;28;20449;-82
2020/12/18 07:32:43;;;;;;;6.75;3.20;;;6.90;99.90;;;;;;4147682;28;20415;-81
2020/12/18 07:34:43;;;;;;;12.02;3.60;;;6.90;99.90;;;;;;4160533;28;20036;-81
2020/12/18 07:36:45;;;;;;;7.38;3.47;;;6.90;99.90;;;;;;4160923;28;20049;-80
2020/12/18 07:38:46;;;;;;;6.40;3.03;;;6.90;99.90;;;;;;4162759;28;20504;-80
2020/12/18 07:40:51;;;;;;;9.15;3.42;;;6.90;99.90;;;;;;4161919;28;20033;-81
2020/12/18 07:42:52;;;;;;;4.40;2.58;;;6.90;99.90;;;;;;4163720;28;20036;-80
2020/12/18 07:45:07;;;;;;;6.75;2.80;;;6.90;99.90;;;;;;4154690;28;20037;-80
2020/12/18 07:47:08;;;;;;;12.35;3.88;;;6.90;99.90;;;;;;4158730;28;20056;-81
2020/12/18 07:49:09;;;;;;;5.55;2.90;;;6.90;99.90;;;;;;4161025;28;20474;-80
2020/12/18 07:51:24;;;;;;;11.73;3.20;;;6.90;99.90;;;;;;4149941;28;20109;-80
2020/12/18 07:53:26;;;;;;;6.90;3.28;;;6.90;99.90;;;;;;4165945;28;20030;-81
2020/12/18 07:55:27;;;;;;;9.10;3.30;;;6.90;99.90;;;;;;4152156;28;20112;-81
2020/12/18 07:57:36;;;;;;;7.18;3.38;;;7.00;99.90;;;;;;4170156;28;20033;-81
2020/12/18 07:59:42;;;;;;;6.53;3.25;;;7.00;99.90;;;;;;4152056;28;20478;-81
2020/12/18 08:01:59;;;;;;;7.07;3.30;;;7.00;99.90;;;;;;4164889;28;20366;-81
2020/12/18 08:04:15;;;;;;;7.22;2.90;;;7.00;99.90;;;;;;4147551;28;20030;-81
2020/12/18 08:06:24;;;;;;;6.32;2.65;;;7.00;99.90;;;;;;4166375;28;20029;-81
2020/12/18 08:08:27;;;;;;;7.60;2.80;;;7.00;99.90;;;;;;4168191;28;20029;-80
2020/12/18 08:10:27;;;;;;;9.13;3.60;;;7.00;99.90;;;;;;4152497;28;20452;-81
2020/12/18 08:12:29;;;;;;;8.00;2.92;;;7.10;99.90;;;;;;4160918;28;20041;-81
2020/12/18 08:14:29;;;;;;;8.48;3.33;;;7.10;99.90;;;;;;4161874;28;20042;-80
2020/12/18 08:16:33;;;;;;;6.97;2.90;;;7.10;99.90;;;;;;4158798;28;20046;-80
2020/12/18 08:18:35;;;;;;;5.68;2.70;;;7.20;99.90;;;;;;4165008;28;20030;-80
2020/12/18 08:20:44;;;;;;;9.20;2.55;;;7.20;99.90;;;;;;4162869;28;20038;-80
2020/12/18 08:22:46;;;;;;;6.63;3.15;;;7.30;99.90;;;;;;4160852;28;20067;-80
2020/12/18 08:25:03;;;;;;;12.18;3.42;;;7.30;99.90;;;;;;4165346;28;20036;-80
2020/12/18 08:27:10;;;;;;;12.68;3.50;;;7.30;99.90;;;;;;4164207;28;20485;-80
2020/12/18 08:29:12;;;;;;;8.32;2.88;;;7.30;99.90;;;;;;4147169;28;20371;-80
2020/12/18 08:31:14;;;;;;;7.90;3.35;;;7.30;99.90;;;;;;4167041;28;20117;-80
2020/12/18 08:33:19;;;;;;;;;;;7.40;99.90;;;;;;4144963;28;20058;-81
2020/12/18 08:35:21;;;;;;;7.03;2.85;;;7.30;99.90;;;;;;4156645;28;20055;-80
2020/12/18 08:37:37;;;;;;;5.20;2.90;;;7.40;99.90;;;;;;4143606;28;20499;-80
2020/12/18 08:39:39;;;;;;;8.02;3.30;;;7.40;99.90;;;;;;4161705;28;20026;-80
2020/12/18 08:41:53;;;;;;;6.53;2.92;;;7.40;99.90;;;;;;4146629;28;20027;-80
2020/12/18 08:44:04;;;;;;;9.25;3.80;;;7.40;99.90;;;;;;4148740;28;20053;-79
2020/12/18 08:46:05;;;;;;;7.82;2.60;;;7.40;99.90;;;;;;4161781;28;20041;-85
2020/12/18 08:48:06;;;;;;;10.75;3.10;;;7.40;99.90;;;;;;4160205;28;20091;-80
2020/12/18 08:50:06;;;;;;;7.22;3.03;;;7.50;99.90;;;;;;4160365;28;20084;-80
2020/12/18 08:52:07;;;;;;;10.10;3.13;;;7.40;99.90;;;;;;4162020;28;20033;-80
2020/12/18 08:54:30;;;;;;;7.30;3.38;;;7.50;99.90;;;;;;4168488;28;20112;-80
2020/12/18 08:56:30;;;;;;;7.05;3.40;;;7.50;99.90;;;;;;4153484;28;20077;-80
2020/12/18 08:58:33;;;;;;;7.75;2.92;;;7.50;99.90;;;;;;4150235;28;20468;-80
2020/12/18 09:00:34;;;;;;;6.72;2.75;;;7.50;99.90;;;;;;4170483;28;20060;-80
2020/12/18 09:02:58;;;;;;;7.72;3.58;;;7.60;99.90;;;;;;4177582;28;20040;-80
2020/12/18 09:05:07;;;;;;;10.38;3.03;;;7.60;99.90;;;;;;4160849;28;20033;-80
2020/12/18 09:07:08;;;;;;;8.90;3.22;;;7.60;99.90;;;;;;4164013;28;20520;-80
2020/12/18 09:09:09;;;;;;;6.13;2.67;;;7.60;99.90;;;;;;4162399;28;20037;-80
2020/12/18 09:11:09;;;;;;;10.30;3.55;;;7.60;99.90;;;;;;4165123;28;20033;-80
2020/12/18 09:13:25;;;;;;;7.45;2.97;;;7.60;99.90;;;;;;4114284;28;20030;-81
2020/12/18 09:15:29;;;;;;;9.48;3.45;;;7.70;99.90;;;;;;4167515;28;20120;-81
2020/12/18 09:17:29;;;;;;;9.65;3.03;;;7.70;99.90;;;;;;4162248;28;20451;-81
2020/12/18 09:19:33;;;;;;;6.78;2.90;;;7.70;99.90;;;;;;4162428;28;20048;-80
2020/12/18 09:21:34;;;;;;;5.82;2.88;;;7.80;99.90;;;;;;4166065;28;20523;-81
2020/12/18 09:23:36;;;;;;;10.73;3.85;;;7.80;99.90;;;;;;4165487;28;20128;-82
2020/12/18 09:26:04;;;;;;;11.32;3.97;;;7.80;99.90;;;;;;4146047;28;20121;-80
2020/12/18 09:28:11;;;;;;;8.80;3.35;;;7.80;99.90;;;;;;4155851;28;20089;-81
2020/12/18 09:30:11;;;;;;;6.60;3.00;;;7.80;99.90;;;;;;4138643;28;20049;-81
2020/12/18 09:32:14;;;;;;;8.75;3.53;;;7.90;99.90;;;;;;4145039;28;20030;-80
2020/12/18 09:34:16;;;;;;;7.97;3.65;;;7.90;99.90;;;;;;4163798;28;20040;-80
2020/12/18 09:36:19;;;;;;;11.40;4.05;;;7.90;99.90;;;;;;4129805;28;20864;-80
2020/12/18 09:38:37;;;;;;;7.63;3.42;;;8.00;99.90;;;;;;4172714;28;20034;-81
2020/12/18 09:40:38;;;;;;;11.32;3.72;;;8.00;99.90;;;;;;4142046;28;20079;-80
2020/12/18 09:42:39;;;;;;;11.13;3.90;;;8.00;99.90;;;;;;4156134;28;20029;-81
2020/12/18 09:44:48;;;;;;;6.82;3.50;;;8.00;99.90;;;;;;4158694;28;20069;-80
2020/12/18 09:46:50;;;;;;;7.28;3.22;;;8.10;99.90;;;;;;4158906;28;20172;-80
2020/12/18 09:48:52;;;;;;;7.38;3.50;;;8.10;99.90;;;;;;4162040;28;20045;-80
2020/12/18 09:50:55;;;;;;;8.30;3.60;;;8.20;99.90;;;;;;4155997;28;20141;-80
2020/12/18 09:52:57;;;;;;;9.98;3.55;;;8.30;99.90;;;;;;4147405;28;20034;-81
2020/12/18 09:54:59;;;;;;;8.50;3.55;;;8.30;99.90;;;;;;4119887;28;20398;-80
2020/12/18 09:57:00;;;;;;;7.50;3.45;;;8.40;99.90;;;;;;4144301;28;20038;-80
2020/12/18 09:59:02;;;;;;;6.93;2.97;;;8.50;99.90;;;;;;4162000;28;20064;-81
2020/12/18 10:01:03;;;;;;;9.02;3.67;;;8.50;99.90;;;;;;4159258;28;20025;-80
2020/12/18 10:03:05;;;;;;;8.55;3.40;;;8.60;99.90;;;;;;4148641;28;20211;-80
2020/12/18 10:05:05;;;;;;;5.88;3.47;;;8.60;99.90;;;;;;4149337;28;20052;-80
2020/12/18 10:07:06;;;;;;;13.75;4.15;;;8.70;99.90;;;;;;4166479;28;20584;-80
2020/12/18 10:09:07;;;;;;;6.90;3.60;;;8.80;99.90;;;;;;4178945;28;20579;-80
2020/12/18 10:11:08;;;;;;;11.55;4.10;;;8.80;99.90;;;;;;4161230;28;20041;-80
2020/12/18 10:13:15;;;;;;;9.32;3.17;;;8.90;99.90;;;;;;4164428;28;21020;-80
2020/12/18 10:15:16;;;;;;;11.38;3.90;;;8.90;99.90;;;;;;4163290;28;20037;-81
2020/12/18 10:17:16;;;;;;;11.20;3.60;;;9.00;99.90;;;;;;4162719;28;20036;-79
2020/12/18 10:19:24;;;;;;;7.00;3.42;;;9.00;99.90;;;;;;4163316;28;20033;-80
2020/12/18 10:21:25;;;;;;;9.38;3.97;;;9.00;99.90;;;;;;4161758;28;20137;-80
2020/12/18 10:23:25;;;;;;;10.55;3.47;;;9.10;99.90;;;;;;4163388;28;20056;-80
2020/12/18 10:25:26;;;;;;;9.93;3.80;;;9.20;99.90;;;;;;4147416;28;20038;-80
2020/12/18 10:27:27;;;;;;;10.95;4.15;;;9.30;99.90;;;;;;4162595;28;20033;-80
2020/12/18 10:29:28;;;;;;;9.70;3.90;;;9.30;99.90;;;;;;4165157;28;20486;-80
2020/12/18 10:31:29;;;;;;;9.02;3.65;;;9.40;99.90;;;;;;4160460;28;20030;-80
2020/12/18 10:33:29;;;;;;;6.00;2.90;;;9.40;99.90;;;;;;4171144;28;20060;-80
2020/12/18 10:35:30;;;;;;;13.45;3.97;;;9.50;99.90;;;;;;4174257;28;20026;-80
2020/12/18 10:37:32;;;;;;;10.15;3.50;;;9.50;99.90;;;;;;4171407;28;20416;-81
2020/12/18 10:39:33;;;;;;;5.47;3.03;;;9.50;99.90;;;;;;4180573;28;20048;-80
2020/12/18 10:41:33;;;;;;;7.45;3.63;;;9.60;99.90;;;;;;4160794;28;20459;-79
2020/12/18 10:43:35;;;;;;;10.50;3.67;;;9.60;99.90;;;;;;4171835;28;20444;-80
2020/12/18 10:45:35;;;;;;;8.77;3.10;;;9.60;99.90;;;;;;4163909;28;20468;-80
2020/12/18 10:47:38;;;;;;;6.90;3.20;;;9.70;99.90;;;;;;4162144;28;20045;-80